Hlavní strana
METAR-TAF:

METAR-TAF

Letiště :

Letiště Ankara-Esenboğa

Ankara Esenboğa, Turecko

zeměpisná šířka: 40-07N, zeměpisná délka: 032-59E, výška: 953 m

Aktuální stav počasí

Zpráva byla vytvořena před 38 minutami, v 22:50 UTC
vítr z různých směrů 2 kt
Teplota -9°C
Vlhkost vzduchu 92%
Tlak 1013 hPa
Viditelnost: 9000 m
Skoro jasno ve výšce 4000 ft
Polojasno ve výšce 10000 ft

METAR: LTAC 152250Z VRB02KT 9000 FEW040 SCT100 M09/M10 Q1013 R03R/////95 NOSIG

Čas: 02:28 (23:28 UTC)

Předpověď počasí

Zpráva byla vytvořena před 6 hodinami a 48 minutami, v 16:40 UTC
Předpověď platná od 15 v 18 UTC do 16 v 18 UTC
vítr z různých směrů 2 kt
Viditelnost 10 km a více
Polojasno ve výšce 4000 ft
Oblačno až skoro zataženo ve výšce 10000 ft
Pravděpodobnost 30%
od 16 v 02 UTC do 16 v 06 UTC
Viditelnost: 2500 m
Oblačno až skoro zataženo ve výšce 1200 ft
kouřmo

TAF: LTAC 151640Z 1518/1618 VRB02KT 9999 SCT040 BKN100 PROB30 1602/1606 2500 BR BKN012

Stav a předpovědi počasí z více než 4 000 letišť (zprávy METAR a TAF).

Červené a žluté tečky na mapě představují dostupné meteorologické stanice.

Když kurzor umístíte na tečku, zobrazí se název stanice.

Pak kliknutím zobrazíte stav a předpověď počasí.

Chcete-li změnit mapu, kliknutím na zelené tlačítko se znaménkem +mapu přiblížíte, kliknutím na zelené tlačítko se znaménkem – mapu oddálíte a kliknutím na zelené šipky přejdete na sousední mapy.


METAR-TAF: